Time;durP1;ratioP1;P1;durP2;ratioP2;P2;SDS_P1;SDS_P2;PMS_P1;PMS_P2;Temp;Humidity;BMP_temperature;BMP_pressure;BME280_temperature;BME280_humidity;BME280_pressure;Samples;Min_cycle;Max_cycle;Signal;HPM_P1;HPM_P2
2023/07/11 00:00:51;;;;;;;4.90;3.60;;;19.10;99.90;;;;;;5095024;28;20196;-81
2023/07/11 00:03:17;;;;;;;4.00;3.60;;;18.90;1.00;;;;;;5095645;28;20172;-81
2023/07/11 00:05:42;;;;;;;3.67;3.38;;;18.90;99.90;;;;;;5096748;28;20172;-81
2023/07/11 00:08:08;;;;;;;4.45;3.47;;;19.00;1.00;;;;;;5096415;28;20195;-81
2023/07/11 00:10:34;;;;;;;3.95;3.53;;;19.00;99.90;;;;;;5095656;28;20168;-81
2023/07/11 00:13:00;;;;;;;5.63;3.90;;;19.00;99.90;;;;;;5096121;28;20754;-81
2023/07/11 00:15:26;;;;;;;4.28;3.78;;;18.90;1.00;;;;;;5096310;28;20255;-81
2023/07/11 00:17:52;;;;;;;3.95;3.65;;;18.90;99.90;;;;;;5094847;28;20201;-81
2023/07/11 00:20:18;;;;;;;3.88;3.50;;;18.80;1.00;;;;;;5095811;28;20165;-81
2023/07/11 00:22:45;;;;;;;4.95;3.45;;;18.90;99.90;;;;;;5096095;28;20643;-81
2023/07/11 00:25:11;;;;;;;3.83;3.53;;;18.90;1.00;;;;;;5094861;28;20173;-81
2023/07/11 00:27:37;;;;;;;3.80;3.40;;;18.90;99.90;;;;;;5095065;28;20215;-81
2023/07/11 00:30:05;;;;;;;3.72;3.40;;;19.00;1.00;;;;;;5094034;28;20177;-81
2023/07/11 00:32:30;;;;;;;4.07;3.67;;;19.00;1.00;;;;;;5094501;28;20245;-81
2023/07/11 00:34:56;;;;;;;3.95;3.47;;;18.90;99.90;;;;;;5094408;28;20176;-81
2023/07/11 00:37:21;;;;;;;4.20;3.53;;;18.80;99.90;;;;;;5095693;28;20683;-81
2023/07/11 00:39:47;;;;;;;3.88;3.47;;;18.70;99.90;;;;;;5094107;28;20168;-81
2023/07/11 00:42:13;;;;;;;4.28;3.65;;;18.60;1.00;;;;;;5094308;28;20200;-81
2023/07/11 00:44:54;;;;;;;3.90;3.50;;;18.70;99.90;;;;;;5094195;28;20195;-81
2023/07/11 00:47:22;;;;;;;4.93;3.70;;;18.80;94.10;;;;;;5094443;28;20192;-81
2023/07/11 00:49:51;;;;;;;3.65;3.35;;;18.80;1.00;;;;;;5093847;28;20229;-81
2023/07/11 00:52:18;;;;;;;3.83;3.40;;;18.90;1.00;;;;;;5093993;28;20207;-81
2023/07/11 00:54:50;;;;;;;4.32;3.67;;;18.90;1.00;;;;;;5094268;28;20672;-81
2023/07/11 00:57:18;;;;;;;3.60;3.30;;;19.00;99.90;;;;;;5094270;28;20223;-81
2023/07/11 00:59:44;;;;;;;4.00;3.40;;;18.90;1.00;;;;;;5094812;28;20164;-80
2023/07/11 01:02:14;;;;;;;4.65;3.20;;;18.90;1.00;;;;;;5094311;28;20234;-81
2023/07/11 01:04:40;;;;;;;4.07;3.42;;;18.90;99.90;;;;;;5095404;28;20176;-80
2023/07/11 01:07:09;;;;;;;3.63;3.33;;;18.80;1.00;;;;;;5093406;28;20283;-81
2023/07/11 01:09:34;;;;;;;4.05;3.47;;;18.60;99.90;;;;;;5094734;28;20180;-81
2023/07/11 01:12:07;;;;;;;3.60;3.30;;;18.40;97.80;;;;;;5093677;28;20690;-81
2023/07/11 01:14:34;;;;;;;3.90;3.50;;;18.30;1.00;;;;;;5095433;28;20627;-81
2023/07/11 01:17:00;;;;;;;3.92;3.53;;;18.30;28.40;;;;;;5093816;28;20238;-81
2023/07/11 01:19:26;;;;;;;4.35;3.95;;;18.10;99.90;;;;;;5093785;28;20169;-81
2023/07/11 01:21:51;;;;;;;4.25;3.85;;;18.00;99.90;;;;;;5093525;28;20679;-80
2023/07/11 01:24:17;;;;;;;3.72;3.40;;;18.00;1.00;;;;;;5094783;28;20172;-80
2023/07/11 01:26:43;;;;;;;3.80;3.40;;;18.00;1.00;;;;;;5094853;28;20234;-81
2023/07/11 01:29:10;;;;;;;4.00;3.47;;;17.90;1.00;;;;;;5095039;28;20172;-81
2023/07/11 01:31:36;;;;;;;4.47;3.70;;;17.90;99.90;;;;;;5086174;28;20262;-81
2023/07/11 01:34:03;;;;;;;4.07;3.33;;;17.80;99.90;;;;;;5093467;28;20214;-81
2023/07/11 01:36:29;;;;;;;4.20;3.50;;;17.80;1.00;;;;;;5093222;28;20200;-81
2023/07/11 01:38:56;;;;;;;3.73;3.40;;;17.80;1.00;;;;;;5093216;28;20168;-81
2023/07/11 01:41:23;;;;;;;3.83;3.33;;;17.90;99.90;;;;;;5092647;28;20215;-81
2023/07/11 01:43:48;;;;;;;4.20;3.43;;;17.90;99.90;;;;;;5094371;28;20243;-81
2023/07/11 01:46:14;;;;;;;3.53;3.23;;;18.00;1.00;;;;;;5094326;28;20196;-81
2023/07/11 01:48:39;;;;;;;5.10;3.70;;;18.10;1.00;;;;;;5094206;28;20278;-81
2023/07/11 01:51:05;;;;;;;5.47;3.70;;;18.00;99.90;;;;;;5094100;28;20172;-81
2023/07/11 01:53:31;;;;;;;3.97;3.67;;;18.00;4.20;;;;;;5093006;28;20196;-81
2023/07/11 01:55:58;;;;;;;4.25;3.60;;;18.00;1.00;;;;;;5094697;28;20172;-81
2023/07/11 01:58:24;;;;;;;5.00;3.87;;;17.90;22.10;;;;;;5094440;28;20208;-81
2023/07/11 02:00:49;;;;;;;4.07;3.50;;;17.80;99.90;;;;;;5093669;28;20251;-81
2023/07/11 02:03:15;;;;;;;4.13;3.73;;;18.00;99.90;;;;;;5092732;28;20176;-81
2023/07/11 02:05:40;;;;;;;4.00;3.53;;;17.90;99.90;;;;;;5092663;28;20203;-81
2023/07/11 02:08:06;;;;;;;4.37;3.60;;;17.90;1.00;;;;;;5094102;28;20211;-81
2023/07/11 02:10:32;;;;;;;6.33;3.70;;;17.90;99.90;;;;;;5093508;28;20172;-81
2023/07/11 02:12:57;;;;;;;4.87;4.27;;;17.80;99.90;;;;;;5092646;28;20615;-81
2023/07/11 02:15:23;;;;;;;5.33;3.77;;;17.90;99.90;;;;;;5094132;28;20176;-81
2023/07/11 02:17:49;;;;;;;5.53;3.97;;;17.90;1.00;;;;;;5092406;28;20192;-79
2023/07/11 02:20:14;;;;;;;4.00;3.60;;;17.80;1.00;;;;;;5093075;28;20516;-80
2023/07/11 02:22:40;;;;;;;4.30;3.90;;;17.80;99.90;;;;;;5092477;28;20180;-81
2023/07/11 02:25:06;;;;;;;4.23;3.60;;;17.70;1.00;;;;;;5094115;28;20611;-81
2023/07/11 02:27:31;;;;;;;5.07;3.97;;;17.80;1.00;;;;;;5092448;28;20193;-81
2023/07/11 02:29:57;;;;;;;5.23;3.73;;;17.80;1.00;;;;;;5092312;28;20179;-81
2023/07/11 02:32:22;;;;;;;5.53;3.80;;;17.90;1.00;;;;;;5091913;28;20271;-79
2023/07/11 02:34:48;;;;;;;4.07;3.70;;;17.90;99.90;;;;;;5093226;28;20588;-79
2023/07/11 02:37:14;;;;;;;4.30;3.70;;;17.90;1.00;;;;;;5092941;28;20273;-79
2023/07/11 02:39:39;;;;;;;4.60;4.10;;;17.80;99.90;;;;;;5091861;28;20194;-79
2023/07/11 02:42:05;;;;;;;7.17;3.60;;;17.70;1.00;;;;;;5093079;28;20168;-79
2023/07/11 02:44:30;;;;;;;4.50;3.70;;;17.60;99.90;;;;;;5092158;28;20200;-79
2023/07/11 02:46:56;;;;;;;4.27;3.80;;;17.40;71.80;;;;;;5091674;28;20196;-79
2023/07/11 02:49:21;;;;;;;4.10;3.70;;;17.20;99.90;;;;;;5093350;28;20547;-79
2023/07/11 02:51:47;;;;;;;4.27;3.70;;;17.20;1.00;;;;;;5091462;28;20211;-79
2023/07/11 02:54:14;;;;;;;4.23;3.70;;;17.10;1.00;;;;;;5091899;28;20196;-79
2023/07/11 02:56:39;;;;;;;6.27;4.30;;;17.10;99.90;;;;;;5091970;28;20168;-79
2023/07/11 02:59:05;;;;;;;4.20;3.80;;;17.10;99.90;;;;;;5081597;28;20234;-79
2023/07/11 03:01:32;;;;;;;4.00;3.70;;;17.30;99.90;;;;;;5090719;28;20169;-79
2023/07/11 03:03:58;;;;;;;4.17;3.77;;;17.20;16.50;;;;;;5092125;28;20181;-79
2023/07/11 03:06:23;;;;;;;4.33;3.93;;;17.10;1.00;;;;;;5091875;28;20275;-79
2023/07/11 03:08:49;;;;;;;4.30;3.90;;;17.00;99.90;;;;;;5092025;28;20203;-79
2023/07/11 03:11:15;;;;;;;4.50;3.83;;;17.10;99.90;;;;;;5092413;28;20196;-79
2023/07/11 03:13:42;;;;;;;4.80;3.93;;;17.00;1.00;;;;;;5093354;28;20560;-79
2023/07/11 03:16:08;;;;;;;4.47;4.07;;;17.00;1.00;;;;;;5091728;28;20180;-79
2023/07/11 03:18:33;;;;;;;4.70;4.00;;;16.80;99.90;;;;;;5092984;28;20192;-79
2023/07/11 03:21:00;;;;;;;6.27;3.80;;;16.80;1.00;;;;;;5092162;28;20178;-79
2023/07/11 03:23:27;;;;;;;4.20;3.80;;;16.80;54.40;;;;;;5091928;28;20549;-79
2023/07/11 03:25:53;;;;;;;4.83;4.20;;;16.80;99.90;;;;;;5091019;28;20184;-79
2023/07/11 03:28:18;;;;;;;4.53;3.80;;;16.90;99.90;;;;;;5083163;28;20223;-79
2023/07/11 03:30:44;;;;;;;4.70;4.30;;;16.80;20.00;;;;;;5084244;28;20203;-81
2023/07/11 03:33:09;;;;;;;4.30;3.90;;;16.80;1.00;;;;;;5096544;28;20670;-81
2023/07/11 03:35:35;;;;;;;4.53;4.10;;;16.90;1.00;;;;;;5087690;28;20546;-81
2023/07/11 03:38:01;;;;;;;4.70;4.10;;;16.90;99.90;;;;;;5095976;28;20192;-81
2023/07/11 03:40:28;;;;;;;4.47;4.03;;;16.90;99.90;;;;;;5096262;28;20179;-80
2023/07/11 03:42:54;;;;;;;5.20;4.03;;;16.90;99.90;;;;;;5096882;28;20522;-81
2023/07/11 03:45:20;;;;;;;5.03;4.03;;;17.10;1.00;;;;;;5096815;28;20700;-81
2023/07/11 03:47:45;;;;;;;5.00;4.00;;;17.10;99.90;;;;;;5096666;28;20682;-81
2023/07/11 03:50:11;;;;;;;4.47;3.93;;;17.10;99.90;;;;;;5095142;28;20649;-81
2023/07/11 03:52:37;;;;;;;7.20;4.27;;;17.20;99.90;;;;;;5096430;28;20231;-81
2023/07/11 03:55:02;;;;;;;5.23;4.30;;;17.40;1.00;;;;;;5095161;28;20553;-80
2023/07/11 03:57:28;;;;;;;5.80;4.30;;;17.20;99.90;;;;;;5096559;28;20244;-81
2023/07/11 03:59:53;;;;;;;4.97;4.40;;;17.20;1.00;;;;;;5094710;28;20631;-81
2023/07/11 04:02:19;;;;;;;4.50;3.90;;;17.10;99.90;;;;;;5093503;28;20187;-81
2023/07/11 04:04:45;;;;;;;5.17;4.10;;;17.00;1.00;;;;;;5089627;28;20176;-81
2023/07/11 04:07:10;;;;;;;4.70;4.00;;;17.00;1.00;;;;;;5094189;28;20623;-81
2023/07/11 04:09:39;;;;;;;4.63;4.23;;;16.90;1.00;;;;;;5087601;28;20172;-79
2023/07/11 04:12:05;;;;;;;5.17;3.97;;;17.00;1.00;;;;;;5096596;28;20242;-81
2023/07/11 04:14:31;;;;;;;5.33;4.57;;;16.90;99.90;;;;;;5095005;28;20168;-81
2023/07/11 04:16:56;;;;;;;5.13;4.40;;;17.00;63.40;;;;;;5091575;28;20207;-81
2023/07/11 04:19:22;;;;;;;5.10;4.60;;;16.90;99.90;;;;;;5094453;28;20198;-81
2023/07/11 04:21:47;;;;;;;4.70;4.30;;;17.10;99.90;;;;;;5080077;28;20176;-81
2023/07/11 04:24:13;;;;;;;5.43;4.47;;;17.30;99.90;;;;;;5087790;28;20204;-81
2023/07/11 04:26:38;;;;;;;5.60;4.00;;;17.20;99.90;;;;;;5096081;28;20208;-81
2023/07/11 04:29:04;;;;;;;4.90;4.40;;;17.00;1.00;;;;;;5094739;28;20172;-81
2023/07/11 04:31:29;;;;;;;5.57;4.67;;;17.00;99.90;;;;;;5095388;28;20188;-81
2023/07/11 04:33:55;;;;;;;4.90;4.40;;;17.10;99.90;;;;;;5095872;28;20169;-81
2023/07/11 04:36:20;;;;;;;5.57;4.20;;;17.10;99.90;;;;;;5095962;28;20187;-81
2023/07/11 04:38:46;;;;;;;5.97;4.30;;;17.10;1.00;;;;;;5080674;28;20218;-81
2023/07/11 04:41:12;;;;;;;6.07;4.90;;;17.00;1.00;;;;;;5091957;28;20183;-80
2023/07/11 04:43:38;;;;;;;5.00;4.50;;;17.00;99.90;;;;;;5095344;28;20180;-81
2023/07/11 04:46:05;;;;;;;6.50;4.50;;;17.00;99.90;;;;;;5095688;28;20208;-80
2023/07/11 04:48:32;;;;;;;5.50;4.40;;;17.00;1.00;;;;;;5093787;28;20206;-81
2023/07/11 04:50:58;;;;;;;5.20;4.70;;;17.10;1.00;;;;;;5094140;28;20178;-80
2023/07/11 04:53:26;;;;;;;5.83;4.57;;;17.10;1.00;;;;;;5096019;28;20200;-80
2023/07/11 04:55:59;;;;;;;5.57;4.97;;;17.10;1.00;;;;;;5096639;28;20218;-81
2023/07/11 04:58:25;;;;;;;6.03;5.43;;;17.10;1.00;;;;;;5076087;28;20204;-77
2023/07/11 05:00:58;;;;;;;5.33;4.73;;;17.20;1.00;;;;;;5074593;28;20173;-81
2023/07/11 05:03:23;;;;;;;4.23;3.83;;;17.20;1.00;;;;;;5075860;28;20184;-79
2023/07/11 05:05:49;;;;;;;1245.87;88.47;;;18.50;99.90;;;;;;5077569;28;20177;-81
2023/07/11 05:08:14;;;;;;;9.43;5.20;;;19.80;1.00;;;;;;5075916;28;20189;-80
2023/07/11 05:10:52;;;;;;;6.30;3.95;;;20.50;39.30;;;;;;5076330;28;20198;-80
2023/07/11 05:13:18;;;;;;;3.40;2.42;;;21.00;1.00;;;;;;5075963;28;20212;-78
2023/07/11 05:15:43;;;;;;;3.70;2.55;;;21.30;1.00;;;;;;5074760;28;20180;-79
2023/07/11 05:18:09;;;;;;;3.30;2.67;;;21.50;99.90;;;;;;5073285;28;20193;-79
2023/07/11 05:20:34;;;;;;;3.17;2.50;;;21.70;1.00;;;;;;5073702;28;20562;-80
2023/07/11 05:23:00;;;;;;;3.33;2.60;;;21.90;1.00;;;;;;5075088;28;20701;-79
2023/07/11 05:25:25;;;;;;;2.75;2.53;;;22.00;99.90;;;;;;5075247;28;20173;-78
2023/07/11 05:27:51;;;;;;;3.15;2.58;;;22.10;99.90;;;;;;5075197;28;20224;-80
2023/07/11 05:30:16;;;;;;;3.13;2.80;;;22.20;99.90;;;;;;5076271;28;20177;-80
2023/07/11 05:32:42;;;;;;;4.38;2.83;;;22.20;99.90;;;;;;5075198;28;20204;-79
2023/07/11 05:35:08;;;;;;;4.00;2.78;;;21.90;99.90;;;;;;5075776;28;20173;-80
2023/07/11 05:37:33;;;;;;;3.17;2.50;;;22.00;99.90;;;;;;5075072;28;20195;-80
2023/07/11 05:39:59;;;;;;;3.60;2.67;;;22.00;99.90;;;;;;5073853;28;20547;-79
2023/07/11 05:42:24;;;;;;;4.50;2.78;;;21.90;99.90;;;;;;5075061;28;20173;-80
2023/07/11 05:44:50;;;;;;;4.30;3.75;;;22.00;99.90;;;;;;5072707;28;20648;-79
2023/07/11 05:47:15;;;;;;;5.28;3.90;;;21.70;1.00;;;;;;5073913;28;20758;-79
2023/07/11 05:49:41;;;;;;;6.28;4.78;;;21.40;99.90;;;;;;5073276;28;20177;-79
2023/07/11 05:52:06;;;;;;;5.10;4.28;;;20.60;1.00;;;;;;5072183;28;20207;-79
2023/07/11 05:54:32;;;;;;;4.85;4.20;;;20.30;1.00;;;;;;5072264;28;20260;-81
2023/07/11 05:56:58;;;;;;;4.63;4.07;;;19.90;20.70;;;;;;5147501;22;20197;-82
2023/07/11 05:59:23;;;;;;;6.47;5.10;;;20.00;78.70;;;;;;5091931;28;20593;-84
2023/07/11 06:01:49;;;;;;;6.10;5.18;;;19.90;1.00;;;;;;5093575;28;20192;-83
2023/07/11 06:04:18;;;;;;;6.75;5.28;;;20.20;99.90;;;;;;5093775;28;20165;-81
2023/07/11 06:06:44;;;;;;;5.60;5.10;;;20.30;1.00;;;;;;5093380;28;20191;-74
2023/07/11 06:09:15;;;;;;;5.28;4.65;;;20.20;99.90;;;;;;5094450;28;20255;-83
2023/07/11 06:11:41;;;;;;;5.03;4.43;;;20.20;88.50;;;;;;5092015;28;20203;-86
2023/07/11 06:14:08;;;;;;;4.63;4.22;;;20.90;1.00;;;;;;5092243;28;20164;-86
2023/07/11 06:16:34;;;;;;;4.90;4.07;;;21.40;99.90;;;;;;5092391;28;20171;-86
2023/07/11 06:18:59;;;;;;;4.70;4.25;;;21.60;1.00;;;;;;5091679;28;20192;-86
2023/07/11 06:21:25;;;;;;;6.07;4.70;;;22.00;99.90;;;;;;5092048;28;20816;-87
2023/07/11 06:23:51;;;;;;;4.88;4.22;;;22.00;99.90;;;;;;5093117;28;20168;-86
2023/07/11 06:26:16;;;;;;;4.97;3.92;;;22.10;88.60;;;;;;5092599;28;20552;-86
2023/07/11 06:28:43;;;;;;;4.38;3.95;;;22.30;19.70;;;;;;5092792;28;20192;-86
2023/07/11 06:31:10;;;;;;;4.25;3.95;;;22.40;1.00;;;;;;5091197;28;20259;-86
2023/07/11 06:33:36;;;;;;;4.75;4.15;;;22.50;1.00;;;;;;5091119;28;20204;-85
2023/07/11 06:36:04;;;;;;;5.40;4.40;;;22.50;1.00;;;;;;5091272;28;20168;-86
2023/07/11 06:38:29;;;;;;;5.07;4.57;;;22.50;99.90;;;;;;5091302;28;20227;-86
2023/07/11 06:40:56;;;;;;;5.15;4.22;;;22.30;1.00;;;;;;5090866;28;20195;-86
2023/07/11 06:43:24;;;;;;;5.03;4.10;;;22.30;1.00;;;;;;5090803;28;20270;-85
2023/07/11 06:45:55;;;;;;;4.38;3.97;;;22.40;32.70;;;;;;5091146;28;20272;-86
2023/07/11 06:48:23;;;;;;;5.63;4.88;;;22.20;1.00;;;;;;5092624;28;20241;-86
2023/07/11 06:50:54;;;;;;;5.13;4.22;;;22.00;1.00;;;;;;5071021;28;20267;-86
2023/07/11 06:53:22;;;;;;;7.07;4.68;;;22.10;99.90;;;;;;5072676;28;20560;-84
2023/07/11 06:55:50;;;;;;;6.30;4.18;;;22.10;99.90;;;;;;5072549;28;20173;-86
2023/07/11 06:58:16;;;;;;;4.90;4.50;;;22.10;99.90;;;;;;5072292;28;20239;-86
2023/07/11 07:00:42;;;;;;;5.00;4.50;;;22.20;1.00;;;;;;5071109;28;20200;-86
2023/07/11 07:03:14;;;;;;;5.65;4.85;;;22.30;99.90;;;;;;5072769;28;20176;-85
2023/07/11 07:05:54;;;;;;;4.80;4.35;;;22.30;1.00;;;;;;5076663;28;20173;-85
2023/07/11 07:08:21;;;;;;;5.50;4.80;;;22.40;1.00;;;;;;5078237;28;20195;-85
2023/07/11 07:10:47;;;;;;;6.10;5.25;;;22.40;1.00;;;;;;5077959;28;20169;-85
2023/07/11 07:13:13;;;;;;;5.45;4.95;;;22.40;1.00;;;;;;5077062;28;20258;-85
2023/07/11 07:15:39;;;;;;;5.22;4.57;;;22.50;1.00;;;;;;5078550;28;20298;-85
2023/07/11 07:18:04;;;;;;;5.53;4.97;;;22.60;1.00;;;;;;5076761;28;20241;-84
2023/07/11 07:20:30;;;;;;;6.25;5.13;;;22.70;1.00;;;;;;5076022;28;20197;-85
2023/07/11 07:22:56;;;;;;;5.82;5.22;;;22.80;1.00;;;;;;5078196;28;20181;-85
2023/07/11 07:25:21;;;;;;;5.80;5.30;;;22.90;1.00;;;;;;5078886;28;20219;-84
2023/07/11 07:27:47;;;;;;;7.60;5.50;;;23.00;1.00;;;;;;5078100;28;20215;-85
2023/07/11 07:30:12;;;;;;;7.18;5.30;;;23.20;1.00;;;;;;5077677;28;20176;-85
2023/07/11 07:32:38;;;;;;;7.70;5.35;;;23.30;99.90;;;;;;5076454;28;20197;-84
2023/07/11 07:35:04;;;;;;;6.25;5.65;;;23.60;1.00;;;;;;5075242;28;20666;-86
2023/07/11 07:37:30;;;;;;;6.03;5.07;;;23.80;1.00;;;;;;5075658;28;20284;-85
2023/07/11 07:39:56;;;;;;;6.80;5.10;;;24.00;1.00;;;;;;5074449;28;20280;-85
2023/07/11 07:42:22;;;;;;;6.68;4.78;;;24.20;1.00;;;;;;5075526;28;20180;-86
2023/07/11 07:44:48;;;;;;;5.50;4.90;;;24.40;99.90;;;;;;5075480;28;20647;-86
2023/07/11 07:47:13;;;;;;;4.97;4.47;;;24.60;31.10;;;;;;5075854;28;20211;-87
2023/07/11 07:49:42;;;;;;;7.35;4.60;;;24.80;1.00;;;;;;5085332;28;20183;-83
2023/07/11 07:52:07;;;;;;;5.15;4.50;;;24.90;1.00;;;;;;5077648;28;20304;-84
2023/07/11 07:54:33;;;;;;;5.63;4.68;;;25.00;1.00;;;;;;5076412;28;20268;-86
2023/07/11 07:56:58;;;;;;;5.82;4.35;;;25.20;99.90;;;;;;5080403;28;20776;-84
2023/07/11 07:59:24;;;;;;;4.35;3.90;;;25.10;99.90;;;;;;5077750;28;20655;-85
2023/07/11 08:01:49;;;;;;;4.78;4.28;;;25.30;99.90;;;;;;5096689;28;20218;-86
2023/07/11 08:04:15;;;;;;;3.97;3.58;;;25.50;8.50;;;;;;5095686;28;20179;-86
2023/07/11 08:06:41;;;;;;;5.75;4.38;;;25.60;1.00;;;;;;5095250;28;20184;-88
2023/07/11 08:09:07;;;;;;;5.18;3.70;;;25.70;1.00;;;;;;5094592;28;20200;-88
2023/07/11 08:11:32;;;;;;;5.18;3.75;;;25.80;1.00;;;;;;5087312;28;20173;-88
2023/07/11 08:13:58;;;;;;;5.05;3.60;;;25.90;1.00;;;;;;5076326;28;20220;-88
2023/07/11 08:16:24;;;;;;;4.97;4.10;;;26.00;1.00;;;;;;5074070;28;20174;-86
2023/07/11 08:18:49;;;;;;;4.35;3.90;;;26.10;1.00;;;;;;5091723;28;20544;-85
2023/07/11 08:21:15;;;;;;;5.15;4.18;;;26.20;1.00;;;;;;5096860;28;20171;-85
2023/07/11 08:23:40;;;;;;;5.22;3.70;;;26.30;1.00;;;;;;5098037;28;20664;-84
2023/07/11 08:26:06;;;;;;;5.00;3.70;;;26.30;1.00;;;;;;5078584;28;20188;-80
2023/07/11 08:28:32;;;;;;;3.88;3.40;;;26.50;1.00;;;;;;5097890;28;20211;-85
2023/07/11 08:30:57;;;;;;;4.13;3.45;;;26.60;1.00;;;;;;5097352;28;20187;-84
2023/07/11 08:33:23;;;;;;;4.57;3.47;;;26.60;1.00;;;;;;5099228;28;20192;-85
2023/07/11 08:35:49;;;;;;;5.35;3.50;;;26.80;1.00;;;;;;5099670;28;20272;-85
2023/07/11 08:38:14;;;;;;;4.70;3.40;;;27.00;99.90;;;;;;5100032;28;20188;-84
2023/07/11 08:40:45;;;;;;;4.18;3.40;;;27.10;99.90;;;;;;5100392;28;20255;-84
2023/07/11 08:43:16;;;;;;;4.95;3.70;;;27.20;1.00;;;;;;5096441;28;20172;-85
2023/07/11 08:45:50;;;;;;;4.20;3.80;;;27.30;1.00;;;;;;5093692;28;20192;-85
2023/07/11 08:48:22;;;;;;;3.97;3.30;;;27.40;1.00;;;;;;5095800;28;20192;-84
2023/07/11 08:51:19;;;;;;;4.60;3.30;;;27.50;99.90;;;;;;5094764;28;20551;-85
2023/07/11 08:54:13;;;;;;;3.90;3.20;;;27.50;99.90;;;;;;5094462;28;20188;-85
2023/07/11 08:56:45;;;;;;;3.60;3.10;;;27.60;99.90;;;;;;5096734;28;20157;-82
2023/07/11 08:59:21;;;;;;;4.30;3.50;;;27.70;99.90;;;;;;5095878;28;20200;-82
2023/07/11 09:01:56;;;;;;;3.60;3.30;;;27.80;99.90;;;;;;5093656;28;20217;-81
2023/07/11 09:04:23;;;;;;;5.78;3.58;;;27.90;99.90;;;;;;5096492;28;20156;-82
2023/07/11 09:07:09;;;;;;;4.68;3.50;;;27.90;99.90;;;;;;5095468;28;20174;-83
2023/07/11 09:09:34;;;;;;;4.43;3.40;;;27.90;99.90;;;;;;5095364;28;20194;-82
2023/07/11 09:12:21;;;;;;;6.72;3.83;;;28.00;99.90;;;;;;5095095;28;20283;-83
2023/07/11 09:15:11;;;;;;;4.28;3.03;;;28.10;99.90;;;;;;5098344;28;20156;-82
2023/07/11 09:17:57;;;;;;;5.40;3.55;;;28.20;99.90;;;;;;5097006;28;20195;-83
2023/07/11 09:20:25;;;;;;;3.83;3.40;;;28.30;99.90;;;;;;5096675;28;20164;-83
2023/07/11 09:23:00;;;;;;;4.47;3.15;;;28.50;99.90;;;;;;5098082;28;20172;-82
2023/07/11 09:25:33;;;;;;;3.80;3.00;;;28.50;99.90;;;;;;5096486;28;20168;-83
2023/07/11 09:28:06;;;;;;;4.18;3.17;;;28.60;99.90;;;;;;5097513;28;20568;-82
2023/07/11 09:30:40;;;;;;;4.07;3.25;;;28.80;99.90;;;;;;5094651;28;20160;-83
2023/07/11 09:33:22;;;;;;;4.40;3.60;;;28.80;99.90;;;;;;5097076;28;20208;-82
2023/07/11 09:35:50;;;;;;;4.22;3.20;;;28.90;99.90;;;;;;5096988;28;20625;-82
2023/07/11 09:38:31;;;;;;;3.45;3.03;;;29.10;99.90;;;;;;5096004;28;20261;-82
2023/07/11 09:41:02;;;;;;;4.28;3.40;;;29.10;99.90;;;;;;5096724;28;20164;-83
2023/07/11 09:43:28;;;;;;;4.22;3.40;;;29.30;99.90;;;;;;5095195;28;20179;-83
2023/07/11 09:45:54;;;;;;;4.35;3.13;;;29.30;99.90;;;;;;5094594;28;20259;-83
2023/07/11 09:48:34;;;;;;;4.47;3.33;;;29.40;99.90;;;;;;5098031;28;20275;-83
2023/07/11 09:50:59;;;;;;;3.25;2.95;;;29.30;99.90;;;;;;5098422;28;20552;-83
2023/07/11 09:53:27;;;;;;;4.03;3.40;;;29.60;99.90;;;;;;5100395;28;20192;-82
2023/07/11 09:55:58;;;;;;;4.95;3.22;;;29.80;99.90;;;;;;5097279;28;20183;-82
2023/07/11 09:58:26;;;;;;;4.10;3.20;;;30.00;99.90;;;;;;5092995;28;20275;-83
2023/07/11 10:00:53;;;;;;;4.93;3.30;;;29.80;99.90;;;;;;5083400;28;20339;-83
2023/07/11 10:03:22;;;;;;;4.30;3.40;;;30.00;99.90;;;;;;5101536;28;20172;-83
2023/07/11 10:05:50;;;;;;;3.75;3.08;;;30.10;99.90;;;;;;5095192;28;20200;-80
2023/07/11 10:08:19;;;;;;;3.67;3.17;;;30.20;99.90;;;;;;5106249;28;20184;-85
2023/07/11 10:10:46;;;;;;;5.10;3.10;;;30.30;99.90;;;;;;5098712;28;20260;-82
2023/07/11 10:13:14;;;;;;;3.53;3.10;;;30.50;99.90;;;;;;5081835;28;20675;-81
2023/07/11 10:15:40;;;;;;;3.70;3.40;;;30.50;99.90;;;;;;5090007;28;20179;-80
2023/07/11 10:18:18;;;;;;;4.18;3.35;;;30.40;99.90;;;;;;5097476;28;20196;-81
2023/07/11 10:20:46;;;;;;;5.07;3.55;;;30.30;99.90;;;;;;5095846;28;20183;-80
2023/07/11 10:23:14;;;;;;;4.45;3.85;;;30.40;99.90;;;;;;5096255;28;20203;-83
2023/07/11 10:25:43;;;;;;;4.28;3.40;;;30.50;99.90;;;;;;5098463;28;20189;-79
2023/07/11 10:28:24;;;;;;;3.88;3.40;;;30.50;99.90;;;;;;5096866;28;20580;-82
2023/07/11 10:30:50;;;;;;;4.68;3.53;;;30.70;99.90;;;;;;5096269;28;20650;-81
2023/07/11 10:33:24;;;;;;;4.20;3.80;;;30.80;99.90;;;;;;5094987;28;20284;-81
2023/07/11 10:35:55;;;;;;;4.57;3.47;;;30.60;99.90;;;;;;5095603;28;20161;-81
2023/07/11 10:38:26;;;;;;;3.67;3.38;;;30.80;99.90;;;;;;5095616;28;20191;-81
2023/07/11 10:40:56;;;;;;;4.13;3.72;;;31.00;99.90;;;;;;5093625;28;20666;-81
2023/07/11 10:43:35;;;;;;;4.47;3.50;;;31.00;99.90;;;;;;5094286;28;20186;-81
2023/07/11 10:46:09;;;;;;;3.63;3.30;;;31.00;99.90;;;;;;5077000;28;20184;-79
2023/07/11 10:48:54;;;;;;;3.78;3.28;;;30.90;99.90;;;;;;5087221;28;20184;-81
2023/07/11 10:51:33;;;;;;;4.05;3.63;;;31.20;99.90;;;;;;5095452;28;20264;-81
2023/07/11 10:54:11;;;;;;;4.72;3.72;;;31.40;99.90;;;;;;5094376;28;20304;-80
2023/07/11 10:56:43;;;;;;;4.10;3.70;;;31.50;99.90;;;;;;5095201;28;20176;-81
2023/07/11 10:59:14;;;;;;;5.13;3.70;;;31.50;99.90;;;;;;5095370;28;20261;-82
2023/07/11 11:01:43;;;;;;;3.55;3.00;;;31.50;99.90;;;;;;5094854;28;20168;-81
2023/07/11 11:04:18;;;;;;;4.00;3.47;;;31.60;99.90;;;;;;5095339;28;20172;-81
2023/07/11 11:06:53;;;;;;;4.28;3.83;;;31.70;99.90;;;;;;5093586;28;20254;-81
2023/07/11 11:09:35;;;;;;;3.85;3.40;;;32.00;99.90;;;;;;5094834;28;20172;-82
2023/07/11 11:12:24;;;;;;;3.97;3.65;;;31.80;99.90;;;;;;5094948;28;20163;-81
2023/07/11 11:15:12;;;;;;;4.75;4.00;;;31.90;99.90;;;;;;5093202;28;20157;-81
2023/07/11 11:17:52;;;;;;;4.75;3.72;;;31.90;99.90;;;;;;5094586;28;20227;-80
2023/07/11 11:20:55;;;;;;;4.22;3.83;;;31.90;99.90;;;;;;5094215;28;20188;-82
2023/07/11 11:23:39;;;;;;;4.32;3.80;;;32.00;99.90;;;;;;5093711;28;20229;-81
2023/07/11 11:26:28;;;;;;;4.10;3.70;;;32.10;99.90;;;;;;5094985;28;20164;-81
2023/07/11 11:29:12;;;;;;;5.78;4.05;;;32.30;99.90;;;;;;5074110;28;20208;-82
2023/07/11 11:31:59;;;;;;;4.45;3.80;;;32.30;99.90;;;;;;5094836;28;20161;-81
2023/07/11 11:34:41;;;;;;;4.75;4.15;;;32.50;99.90;;;;;;5095538;28;20184;-81
2023/07/11 11:37:28;;;;;;;5.00;4.32;;;32.60;99.90;;;;;;5093542;28;20173;-82
2023/07/11 11:39:59;;;;;;;5.00;4.47;;;32.80;99.90;;;;;;5094553;28;20252;-81
2023/07/11 11:42:30;;;;;;;371.55;30.27;;;33.00;97.70;;;;;;5093121;28;20172;-81
2023/07/11 11:45:15;;;;;;;6.45;5.88;;;32.80;92.40;;;;;;5095114;28;20157;-81
2023/07/11 11:47:43;;;;;;;4.80;4.32;;;32.50;92.80;;;;;;5094837;28;20588;-81
2023/07/11 11:50:20;;;;;;;5.30;3.90;;;32.50;95.20;;;;;;5093139;28;20594;-81
2023/07/11 11:52:53;;;;;;;5.03;4.47;;;32.60;93.90;;;;;;5096706;28;20184;-81
2023/07/11 11:55:34;;;;;;;5.00;4.20;;;32.90;87.00;;;;;;5098256;28;20192;-82
2023/07/11 11:58:00;;;;;;;4.50;4.10;;;32.90;82.50;;;;;;5116797;22;20239;-79
2023/07/11 12:00:45;;;;;;;4.60;4.20;;;33.10;80.50;;;;;;5096340;28;20255;-79
2023/07/11 12:03:38;;;;;;;4.63;4.20;;;32.30;74.20;;;;;;5096292;28;20188;-80
2023/07/11 12:06:27;;;;;;;6.45;4.50;;;32.40;86.90;;;;;;5093503;28;20222;-79
2023/07/11 12:09:17;;;;;;;4.78;4.35;;;32.60;83.70;;;;;;5095591;28;20214;-79
2023/07/11 12:12:05;;;;;;;5.13;4.38;;;33.00;81.70;;;;;;5096071;28;20172;-78
2023/07/11 12:14:56;;;;;;;4.45;4.05;;;33.20;77.00;;;;;;5096242;28;20172;-79
2023/07/11 12:17:34;;;;;;;5.05;4.20;;;33.10;70.90;;;;;;5077544;28;20173;-79
2023/07/11 12:19:59;;;;;;;4.95;4.40;;;33.40;69.30;;;;;;5095814;28;20518;-79
2023/07/11 12:22:26;;;;;;;5.32;4.05;;;33.70;65.40;;;;;;5097133;28;20182;-79
2023/07/11 12:25:03;;;;;;;7.50;4.55;;;33.70;54.10;;;;;;5096567;28;20168;-79
2023/07/11 12:27:28;;;;;;;5.03;4.55;;;33.20;49.80;;;;;;5097335;28;20635;-78
2023/07/11 12:29:55;;;;;;;5.03;4.30;;;33.60;56.30;;;;;;5096174;28;20215;-79
2023/07/11 12:32:33;;;;;;;7.00;4.40;;;33.50;34.50;;;;;;5095217;28;20197;-79
2023/07/11 12:35:04;;;;;;;5.20;4.60;;;33.60;30.70;;;;;;5094545;28;20178;-80
2023/07/11 12:37:46;;;;;;;4.50;4.10;;;33.50;22.40;;;;;;5095377;28;20185;-79
2023/07/11 12:40:19;;;;;;;5.45;4.85;;;33.70;25.90;;;;;;5096210;28;20214;-78
2023/07/11 12:42:56;;;;;;;5.15;4.63;;;33.70;23.30;;;;;;5095813;28;20214;-78
2023/07/11 12:45:25;;;;;;;4.82;4.32;;;33.80;27.20;;;;;;5096947;28;20164;-79
2023/07/11 12:48:03;;;;;;;4.93;4.35;;;34.00;33.00;;;;;;5094889;28;20266;-79
2023/07/11 12:50:47;;;;;;;5.68;4.50;;;34.20;29.50;;;;;;5094735;28;20176;-80
2023/07/11 12:53:13;;;;;;;4.78;4.32;;;33.80;29.90;;;;;;5096306;28;20278;-78
2023/07/11 12:55:42;;;;;;;5.00;4.50;;;33.90;33.00;;;;;;5096959;28;20204;-78
2023/07/11 12:58:17;;;;;;;148.55;14.85;;;34.20;30.90;;;;;;5095504;28;20235;-79
2023/07/11 13:00:43;;;;;;;5.95;4.72;;;34.40;28.90;;;;;;5079866;28;20173;-78